createdAt,value
2023-03-20T00:01:58.443Z,1.80
2023-03-20T00:04:26.001Z,1.83
2023-03-20T00:06:52.495Z,2.13
2023-03-20T00:09:18.926Z,2.28
2023-03-20T00:11:50.474Z,2.25
2023-03-20T00:14:19.181Z,2.00
2023-03-20T00:16:47.489Z,2.30
2023-03-20T00:19:19.586Z,2.42
2023-03-20T00:21:47.923Z,2.47
2023-03-20T00:24:15.321Z,2.38
2023-03-20T00:26:43.269Z,2.33
2023-03-20T00:29:22.757Z,1.92
2023-03-20T00:31:49.617Z,2.17
2023-03-20T00:34:17.678Z,2.33
2023-03-20T00:36:44.108Z,2.15
2023-03-20T00:39:10.850Z,2.40
2023-03-20T00:42:01.675Z,2.00
2023-03-20T00:44:34.658Z,2.20
2023-03-20T00:47:03.662Z,2.00
2023-03-20T00:49:33.264Z,1.90
2023-03-20T00:52:01.293Z,1.83
2023-03-20T00:54:28.137Z,1.98
2023-03-20T00:57:16.188Z,2.00
2023-03-20T00:59:51.935Z,2.35
2023-03-20T01:02:18.503Z,1.90
2023-03-20T01:04:44.960Z,2.22
2023-03-20T01:07:14.436Z,2.60
2023-03-20T01:09:41.650Z,3.08
2023-03-20T01:12:10.963Z,2.80
2023-03-20T01:14:37.377Z,3.60
2023-03-20T01:17:03.850Z,2.83
2023-03-20T01:19:30.363Z,3.75
2023-03-20T01:21:56.790Z,3.10
2023-03-20T01:24:23.236Z,3.42
2023-03-20T01:26:51.683Z,3.45
2023-03-20T01:29:24.020Z,3.47
2023-03-20T01:31:51.637Z,3.70
2023-03-20T01:34:18.689Z,3.60
2023-03-20T01:36:51.877Z,3.40
2023-03-20T01:39:21.623Z,3.17
2023-03-20T01:41:48.542Z,3.42
2023-03-20T01:44:23.769Z,3.35
2023-03-20T01:46:52.604Z,3.10
2023-03-20T01:49:18.923Z,3.17
2023-03-20T01:51:46.056Z,3.50
2023-03-20T01:54:19.135Z,3.03
2023-03-20T01:57:08.494Z,3.60
2023-03-20T01:59:34.819Z,3.10
2023-03-20T02:02:01.506Z,3.65
2023-03-20T02:04:34.747Z,4.05
2023-03-20T02:07:01.353Z,3.30
2023-03-20T02:09:27.809Z,3.20
2023-03-20T02:11:54.682Z,3.30
2023-03-20T02:14:22.228Z,3.35
2023-03-20T02:16:48.814Z,3.42
2023-03-20T02:19:23.920Z,3.80
2023-03-20T02:22:23.223Z,3.65
2023-03-20T02:24:54.969Z,4.15
2023-03-20T02:27:51.384Z,3.85
2023-03-20T02:30:43.058Z,4.63
2023-03-20T02:33:33.911Z,4.18
2023-03-20T02:36:33.694Z,3.70
2023-03-20T02:39:26.507Z,3.78
2023-03-20T02:42:13.814Z,3.65
2023-03-20T02:45:13.510Z,4.03
2023-03-20T02:47:51.322Z,4.00
2023-03-20T02:50:23.717Z,4.25
2023-03-20T02:53:10.546Z,4.28
2023-03-20T02:55:46.986Z,4.32
2023-03-20T02:58:26.603Z,4.20
2023-03-20T03:01:23.268Z,4.53
2023-03-20T03:04:22.390Z,5.05
2023-03-20T03:06:51.701Z,4.88
2023-03-20T03:09:33.433Z,5.13
2023-03-20T03:12:03.463Z,5.07
2023-03-20T03:14:36.006Z,5.50
2023-03-20T03:17:04.403Z,5.50
2023-03-20T03:19:32.084Z,5.95
2023-03-20T03:21:58.480Z,6.25
2023-03-20T03:24:41.436Z,7.05
2023-03-20T03:27:14.967Z,7.20
2023-03-20T03:29:42.304Z,7.80
2023-03-20T03:32:31.932Z,7.88
2023-03-20T03:34:59.099Z,8.02
2023-03-20T03:37:41.396Z,9.00
2023-03-20T03:40:33.861Z,9.73
2023-03-20T03:43:11.619Z,9.95
2023-03-20T03:45:55.792Z,10.00
2023-03-20T03:48:31.200Z,10.38
2023-03-20T03:51:01.601Z,14.35
2023-03-20T03:53:32.549Z,14.23
2023-03-20T03:56:02.364Z,16.67
2023-03-20T03:58:42.051Z,19.10
2023-03-20T04:01:13.512Z,19.42
2023-03-20T04:03:43.718Z,20.08
2023-03-20T04:06:12.442Z,21.50
2023-03-20T04:08:41.893Z,21.77
2023-03-20T04:11:19.376Z,24.23
2023-03-20T04:13:50.569Z,25.42
2023-03-20T04:16:18.314Z,25.92
2023-03-20T04:18:45.228Z,27.50
2023-03-20T04:21:12.124Z,27.20
2023-03-20T04:23:38.534Z,26.67
2023-03-20T04:26:06.016Z,24.60
2023-03-20T04:28:32.416Z,25.00
2023-03-20T04:31:00.831Z,23.33
2023-03-20T04:33:28.644Z,21.92
2023-03-20T04:35:56.630Z,21.38
2023-03-20T04:38:24.066Z,19.25
2023-03-20T04:40:50.588Z,18.13
2023-03-20T04:43:17.338Z,17.17
2023-03-20T04:45:43.794Z,18.02
2023-03-20T04:48:10.598Z,16.33
2023-03-20T04:50:37.080Z,18.35
2023-03-20T04:53:03.531Z,16.35
2023-03-20T04:55:29.935Z,16.63
2023-03-20T04:57:56.424Z,16.27
2023-03-20T05:00:22.938Z,17.13
2023-03-20T05:02:49.439Z,17.38
2023-03-20T05:05:15.888Z,17.05
2023-03-20T05:07:42.307Z,17.15
2023-03-20T05:10:09.122Z,18.65
2023-03-20T05:12:35.827Z,18.17
2023-03-20T05:15:02.248Z,17.95
2023-03-20T05:17:28.677Z,18.05
2023-03-20T05:19:55.092Z,17.92
2023-03-20T05:22:21.496Z,18.40
2023-03-20T05:24:47.976Z,19.55
2023-03-20T05:27:14.397Z,19.25
2023-03-20T05:29:40.972Z,18.42
2023-03-20T05:32:07.427Z,18.52
2023-03-20T05:34:33.866Z,18.10
2023-03-20T05:37:00.454Z,16.85
2023-03-20T05:39:26.872Z,18.73
2023-03-20T05:41:53.506Z,17.63
2023-03-20T05:44:19.918Z,17.00
2023-03-20T05:46:46.355Z,18.10
2023-03-20T05:49:12.763Z,17.52
2023-03-20T05:51:39.195Z,16.42
2023-03-20T05:54:05.746Z,15.90
2023-03-20T05:56:32.225Z,16.42
2023-03-20T05:58:58.664Z,15.57
2023-03-20T06:01:25.201Z,15.73
2023-03-20T06:03:51.760Z,16.10
2023-03-20T06:06:18.261Z,16.02
2023-03-20T06:08:44.661Z,16.85
2023-03-20T06:11:11.748Z,16.73
2023-03-20T06:13:38.174Z,15.73
2023-03-20T06:16:04.990Z,17.55
2023-03-20T06:18:31.614Z,18.80
2023-03-20T06:20:58.191Z,18.08
2023-03-20T06:23:24.647Z,17.17
2023-03-20T06:25:51.254Z,18.73
2023-03-20T06:28:17.676Z,17.65
2023-03-20T06:30:44.642Z,18.50
2023-03-20T06:33:11.367Z,18.95
2023-03-20T06:35:38.563Z,18.65
2023-03-20T06:38:05.365Z,18.10
2023-03-20T06:40:31.933Z,18.67
2023-03-20T06:42:58.401Z,18.50
2023-03-20T06:45:24.877Z,17.73
2023-03-20T06:47:51.398Z,18.10
2023-03-20T06:50:17.909Z,17.70
2023-03-20T06:52:44.894Z,17.90
2023-03-20T06:55:11.504Z,17.02
2023-03-20T06:57:38.668Z,17.00
2023-03-20T07:00:06.458Z,17.35
2023-03-20T07:02:33.410Z,16.75
2023-03-20T07:04:59.988Z,16.52
2023-03-20T07:07:27.220Z,16.85
2023-03-20T07:09:53.751Z,16.73
2023-03-20T07:12:20.421Z,16.27
2023-03-20T07:14:46.968Z,16.08
2023-03-20T07:17:13.564Z,16.83
2023-03-20T07:19:40.158Z,17.15
2023-03-20T07:22:08.596Z,17.17
2023-03-20T07:24:35.244Z,17.50
2023-03-20T07:27:01.792Z,17.17
2023-03-20T07:29:28.257Z,17.75
2023-03-20T07:31:54.834Z,16.48
2023-03-20T07:34:21.307Z,16.50
2023-03-20T07:36:47.809Z,16.42
2023-03-20T07:39:14.432Z,15.75
2023-03-20T07:41:40.929Z,15.80
2023-03-20T07:44:08.430Z,16.67
2023-03-20T07:46:34.961Z,15.13
2023-03-20T07:49:01.457Z,15.70
2023-03-20T07:51:27.933Z,15.98
2023-03-20T07:53:55.569Z,15.77
2023-03-20T07:56:22.377Z,15.48
2023-03-20T07:58:48.829Z,15.85
2023-03-20T08:01:15.395Z,15.63
2023-03-20T08:03:41.946Z,16.42
2023-03-20T08:06:09.760Z,16.95
2023-03-20T08:08:36.591Z,16.35
2023-03-20T08:11:03.103Z,15.68
2023-03-20T08:13:29.594Z,16.77
2023-03-20T08:15:56.043Z,15.52
2023-03-20T08:18:22.628Z,15.38
2023-03-20T08:20:50.285Z,15.95
2023-03-20T08:23:20.098Z,15.43
2023-03-20T08:25:50.663Z,16.02
2023-03-20T08:28:17.357Z,15.32
2023-03-20T08:30:44.150Z,16.50
2023-03-20T08:33:11.192Z,15.93
2023-03-20T08:35:38.043Z,15.27
2023-03-20T08:38:04.823Z,15.25
2023-03-20T08:40:31.436Z,15.73
2023-03-20T08:42:57.980Z,16.27
2023-03-20T08:45:26.220Z,15.13
2023-03-20T08:47:53.130Z,15.15
2023-03-20T08:50:19.700Z,15.75
2023-03-20T08:52:47.140Z,16.40
2023-03-20T08:55:15.870Z,15.50
2023-03-20T08:57:42.648Z,15.18
2023-03-20T09:00:12.106Z,15.25
2023-03-20T09:02:38.740Z,15.52
2023-03-20T09:05:06.075Z,17.05
2023-03-20T09:07:32.526Z,15.43
2023-03-20T09:09:59.047Z,15.60
2023-03-20T09:12:25.621Z,15.27
2023-03-20T09:14:52.148Z,15.77
2023-03-20T09:17:18.812Z,15.50
2023-03-20T09:19:45.479Z,16.73
2023-03-20T09:22:13.682Z,16.48
2023-03-20T09:24:40.176Z,20.27
2023-03-20T09:27:06.815Z,18.42
2023-03-20T09:29:33.270Z,17.95
2023-03-20T09:31:59.772Z,18.55
2023-03-20T09:34:26.255Z,18.05
2023-03-20T09:36:53.048Z,17.95
2023-03-20T09:39:19.533Z,18.40
2023-03-20T09:41:57.091Z,18.40
2023-03-20T09:44:59.618Z,17.48
2023-03-20T09:48:18.860Z,16.70
2023-03-20T09:51:22.980Z,16.92
2023-03-20T09:54:01.314Z,16.20
2023-03-20T09:56:29.974Z,16.10
2023-03-20T09:59:01.907Z,15.95
2023-03-20T10:01:39.051Z,17.25
2023-03-20T10:04:10.475Z,16.65
2023-03-20T10:06:37.196Z,16.40
2023-03-20T10:09:12.532Z,16.75
2023-03-20T10:11:41.934Z,16.48
2023-03-20T10:14:35.698Z,16.60
2023-03-20T10:17:31.602Z,15.60
2023-03-20T10:20:01.165Z,17.73
2023-03-20T10:22:36.652Z,18.02
2023-03-20T10:25:08.882Z,17.33
2023-03-20T10:27:41.211Z,17.73
2023-03-20T10:30:26.534Z,17.38
2023-03-20T10:33:11.843Z,17.63
2023-03-20T10:35:43.795Z,18.13
2023-03-20T10:38:37.575Z,16.80
2023-03-20T10:41:05.220Z,17.55
2023-03-20T10:43:38.186Z,17.35
2023-03-20T10:46:10.485Z,16.65
2023-03-20T10:48:39.452Z,17.25
2023-03-20T10:51:16.716Z,16.33
2023-03-20T10:53:47.700Z,17.02
2023-03-20T10:56:20.083Z,16.85
2023-03-20T10:58:48.581Z,16.40
2023-03-20T11:01:15.235Z,16.65
2023-03-20T11:03:41.981Z,16.63
2023-03-20T11:06:21.886Z,16.98
2023-03-20T11:08:51.343Z,16.75
2023-03-20T11:11:26.537Z,16.75
2023-03-20T11:13:53.054Z,16.63
2023-03-20T11:16:25.225Z,17.17
2023-03-20T11:18:53.933Z,16.95
2023-03-20T11:21:23.858Z,16.50
2023-03-20T11:23:51.376Z,16.77
2023-03-20T11:26:20.890Z,17.23
2023-03-20T11:28:50.618Z,16.65
2023-03-20T11:31:20.477Z,17.52
2023-03-20T11:33:52.804Z,17.35
2023-03-20T11:36:30.546Z,17.75
2023-03-20T11:39:16.814Z,18.27
2023-03-20T11:41:54.598Z,20.95
2023-03-20T11:44:33.910Z,21.05
2023-03-20T11:47:08.005Z,20.95
2023-03-20T11:49:47.766Z,21.85
2023-03-20T11:52:15.749Z,21.30
2023-03-20T11:54:50.744Z,20.92
2023-03-20T11:57:36.859Z,20.88
2023-03-20T12:00:18.118Z,20.02
2023-03-20T12:02:44.998Z,20.45
2023-03-20T12:05:18.948Z,20.48
2023-03-20T12:07:46.915Z,21.13
2023-03-20T12:10:14.375Z,20.40
2023-03-20T12:12:45.762Z,20.20
2023-03-20T12:15:27.056Z,20.90
2023-03-20T12:18:01.388Z,20.48
2023-03-20T12:20:44.768Z,20.90
2023-03-20T12:23:35.784Z,21.20
2023-03-20T12:26:54.619Z,20.40
2023-03-20T12:29:31.575Z,22.63
2023-03-20T12:32:07.149Z,21.25
2023-03-20T12:34:47.089Z,22.08
2023-03-20T12:37:14.303Z,24.23
2023-03-20T12:39:48.804Z,22.25
2023-03-20T12:42:37.097Z,22.00
2023-03-20T12:45:22.173Z,22.80
2023-03-20T12:47:57.762Z,23.60
2023-03-20T12:50:38.449Z,23.00
2023-03-20T12:53:35.766Z,23.60
2023-03-20T12:56:25.798Z,21.45
2023-03-20T12:59:08.300Z,21.48
2023-03-20T13:01:53.540Z,21.05
2023-03-20T13:04:36.454Z,22.55
2023-03-20T13:07:07.637Z,21.38
2023-03-20T13:09:52.184Z,22.45
2023-03-20T13:12:21.696Z,20.30
2023-03-20T13:15:01.170Z,19.52
2023-03-20T13:17:38.671Z,19.77
2023-03-20T13:20:23.339Z,17.45
2023-03-20T13:23:27.572Z,18.48
2023-03-20T13:26:14.109Z,18.05
2023-03-20T13:28:56.081Z,18.30
2023-03-20T13:31:43.786Z,17.23
2023-03-20T13:34:21.524Z,16.48
2023-03-20T13:37:16.083Z,14.63
2023-03-20T13:39:58.794Z,15.13
2023-03-20T13:42:29.908Z,16.50
2023-03-20T13:45:01.721Z,14.43
2023-03-20T13:47:28.929Z,14.48
2023-03-20T13:50:22.845Z,15.65
2023-03-20T13:52:55.428Z,16.15
2023-03-20T13:55:53.055Z,16.42
2023-03-20T13:58:32.524Z,13.48
2023-03-20T14:01:04.851Z,13.02
2023-03-20T14:03:39.057Z,13.13
2023-03-20T14:06:39.362Z,14.57
2023-03-20T14:09:25.320Z,12.90
2023-03-20T14:11:53.930Z,11.95
2023-03-20T14:14:46.197Z,12.60
2023-03-20T14:17:20.921Z,11.52
2023-03-20T14:19:48.010Z,11.20
2023-03-20T14:22:16.951Z,11.02
2023-03-20T14:24:48.749Z,11.18
2023-03-20T14:27:29.844Z,10.38
2023-03-20T14:30:31.461Z,10.20
2023-03-20T14:33:00.389Z,10.10
2023-03-20T14:35:28.369Z,9.75
2023-03-20T14:38:14.023Z,9.95
2023-03-20T14:40:49.563Z,9.63
2023-03-20T14:43:26.520Z,9.90
2023-03-20T14:46:02.308Z,10.68
2023-03-20T14:48:35.672Z,10.27
2023-03-20T14:51:20.461Z,10.35
2023-03-20T14:54:14.095Z,11.18
2023-03-20T14:56:40.593Z,10.40
2023-03-20T14:59:10.970Z,9.90
2023-03-20T15:01:46.554Z,9.90
2023-03-20T15:04:18.974Z,9.80
2023-03-20T15:06:58.078Z,10.18
2023-03-20T15:09:27.039Z,10.15
2023-03-20T15:11:53.969Z,9.77
2023-03-20T15:14:25.329Z,9.98
2023-03-20T15:16:58.622Z,9.75
2023-03-20T15:19:25.418Z,9.50
2023-03-20T15:21:53.675Z,8.93
2023-03-20T15:24:25.520Z,9.27
2023-03-20T15:26:58.310Z,8.32
2023-03-20T15:29:24.966Z,8.02
2023-03-20T15:32:12.522Z,8.15
2023-03-20T15:34:41.060Z,8.30
2023-03-20T15:37:07.558Z,8.48
2023-03-20T15:39:43.441Z,8.00
2023-03-20T15:42:13.000Z,9.02
2023-03-20T15:44:41.762Z,9.05
2023-03-20T15:47:11.265Z,9.30
2023-03-20T15:49:42.644Z,8.48
2023-03-20T15:52:31.278Z,9.48
2023-03-20T15:54:59.276Z,9.00
2023-03-20T15:57:33.608Z,9.57
2023-03-20T16:00:02.244Z,9.30
2023-03-20T16:02:30.250Z,9.05
2023-03-20T16:04:57.032Z,9.50
2023-03-20T16:07:28.274Z,9.48
2023-03-20T16:09:55.011Z,9.18
2023-03-20T16:12:21.572Z,8.70
2023-03-20T16:14:49.388Z,8.85
2023-03-20T16:17:17.612Z,9.23
2023-03-20T16:19:45.006Z,9.20
2023-03-20T16:22:21.958Z,8.57
2023-03-20T16:24:51.758Z,8.10
2023-03-20T16:27:24.608Z,8.70
2023-03-20T16:29:52.449Z,7.90
2023-03-20T16:32:32.854Z,8.30
2023-03-20T16:35:01.414Z,8.38
2023-03-20T16:37:30.866Z,8.27
2023-03-20T16:40:16.699Z,8.13
2023-03-20T16:42:43.910Z,8.35
2023-03-20T16:45:22.506Z,8.23
2023-03-20T16:47:49.255Z,9.05
2023-03-20T16:50:23.257Z,9.45
2023-03-20T16:52:52.258Z,8.45
2023-03-20T16:55:32.446Z,9.48
2023-03-20T16:58:00.901Z,8.52
2023-03-20T17:00:30.994Z,10.15
2023-03-20T17:03:05.701Z,9.57
2023-03-20T17:05:56.915Z,8.20
2023-03-20T17:08:29.108Z,7.32
2023-03-20T17:11:00.897Z,7.45
2023-03-20T17:13:27.316Z,7.38
2023-03-20T17:15:54.256Z,7.00
2023-03-20T17:18:20.689Z,7.30
2023-03-20T17:20:47.103Z,7.38
2023-03-20T17:23:20.580Z,7.35
2023-03-20T17:25:49.015Z,6.90
2023-03-20T17:28:24.342Z,7.00
2023-03-20T17:30:51.372Z,7.35
2023-03-20T17:33:20.786Z,7.57
2023-03-20T17:35:47.883Z,7.85
2023-03-20T17:38:22.107Z,8.07
2023-03-20T17:40:49.583Z,7.75
2023-03-20T17:43:17.437Z,8.45
2023-03-20T17:45:44.579Z,7.63
2023-03-20T17:48:17.245Z,7.45
2023-03-20T17:50:45.113Z,7.18
2023-03-20T17:53:17.683Z,7.38
2023-03-20T17:55:44.411Z,7.28
2023-03-20T17:58:15.824Z,8.20
2023-03-20T18:00:42.579Z,7.60
2023-03-20T18:03:09.040Z,7.30
2023-03-20T18:05:39.375Z,8.20
2023-03-20T18:08:11.018Z,8.13
2023-03-20T18:10:37.966Z,7.95
2023-03-20T18:13:04.616Z,8.43
2023-03-20T18:15:31.164Z,9.05
2023-03-20T18:17:57.745Z,7.75
2023-03-20T18:20:30.886Z,8.93
2023-03-20T18:22:57.412Z,8.23
2023-03-20T18:25:25.935Z,7.22
2023-03-20T18:27:53.598Z,8.05
2023-03-20T18:30:23.013Z,8.27
2023-03-20T18:32:49.561Z,7.78
2023-03-20T18:35:16.397Z,8.18
2023-03-20T18:37:43.195Z,8.88
2023-03-20T18:40:26.166Z,9.00
2023-03-20T18:42:54.072Z,8.48
2023-03-20T18:45:21.813Z,8.32
2023-03-20T18:47:48.661Z,8.77
2023-03-20T18:50:19.785Z,8.63
2023-03-20T18:52:46.667Z,9.05
2023-03-20T18:55:13.127Z,9.07
2023-03-20T18:57:43.057Z,9.27
2023-03-20T19:00:39.932Z,8.90
2023-03-20T19:03:08.311Z,9.25
2023-03-20T19:05:36.022Z,9.00
2023-03-20T19:08:03.672Z,9.18
2023-03-20T19:10:39.296Z,9.38
2023-03-20T19:13:07.685Z,10.15
2023-03-20T19:15:36.375Z,10.57
2023-03-20T19:18:06.089Z,9.77
2023-03-20T19:20:39.890Z,10.20
2023-03-20T19:23:08.696Z,9.32
2023-03-20T19:25:36.314Z,10.18
2023-03-20T19:28:03.460Z,13.05
2023-03-20T19:30:40.702Z,11.93
2023-03-20T19:33:07.766Z,12.10
2023-03-20T19:38:22.181Z,12.00
2023-03-20T19:40:53.215Z,12.52
2023-03-20T19:43:23.282Z,16.20
2023-03-20T19:45:55.994Z,22.20
2023-03-20T19:48:27.207Z,23.75
2023-03-20T19:50:54.174Z,23.65
2023-03-20T19:53:27.961Z,20.80
2023-03-20T19:55:55.591Z,16.25
2023-03-20T19:58:22.454Z,15.43
2023-03-20T20:00:59.195Z,14.27
2023-03-20T20:03:26.636Z,13.93
2023-03-20T20:05:53.541Z,13.10
2023-03-20T20:08:30.037Z,12.82
2023-03-20T20:11:07.145Z,12.43
2023-03-20T20:13:43.854Z,11.88
2023-03-20T20:16:21.202Z,12.23
2023-03-20T20:18:49.788Z,11.63
2023-03-20T20:24:02.984Z,11.27
2023-03-20T20:26:31.384Z,11.13
2023-03-20T20:29:01.762Z,10.85
2023-03-20T20:31:31.841Z,11.00
2023-03-20T20:34:25.235Z,12.68
2023-03-20T20:39:31.709Z,11.57
2023-03-20T20:41:58.264Z,11.75
2023-03-20T20:44:24.804Z,12.02
2023-03-20T20:46:51.713Z,11.40
2023-03-20T20:49:20.271Z,11.73
2023-03-20T20:51:47.727Z,10.18
2023-03-20T20:54:14.668Z,11.65
2023-03-20T20:56:41.437Z,11.45
2023-03-20T20:59:08.043Z,10.93
2023-03-20T21:01:34.774Z,11.52
2023-03-20T21:04:02.346Z,11.25
2023-03-20T21:06:54.212Z,10.38
2023-03-20T21:09:15.419Z,10.93
2023-03-20T21:11:41.992Z,10.60
2023-03-20T21:14:08.882Z,10.40
2023-03-20T21:16:35.431Z,10.20
2023-03-20T21:19:07.670Z,9.57
2023-03-20T21:21:35.734Z,9.48
2023-03-20T21:24:02.520Z,8.95
2023-03-20T21:26:29.184Z,9.40
2023-03-20T21:28:55.721Z,8.60
2023-03-20T21:31:27.931Z,8.48
2023-03-20T21:33:56.607Z,8.85
2023-03-20T21:36:23.774Z,8.90
2023-03-20T21:39:08.651Z,8.80
2023-03-20T21:41:37.950Z,9.07
2023-03-20T21:44:07.666Z,8.82
2023-03-20T21:55:40.690Z,8.75
2023-03-20T22:03:40.000Z,9.32
2023-03-20T22:15:11.898Z,9.60
2023-03-20T22:20:42.247Z,8.88
2023-03-20T22:26:20.997Z,10.38
2023-03-20T22:31:50.796Z,9.80
2023-03-20T22:40:27.234Z,9.50
2023-03-20T22:42:49.616Z,9.88
2023-03-20T22:45:05.577Z,10.00
2023-03-20T22:47:32.403Z,10.60
2023-03-20T22:49:58.946Z,11.55
2023-03-20T22:52:38.003Z,10.65
2023-03-20T22:55:12.083Z,11.00
2023-03-20T22:57:45.693Z,11.23
2023-03-20T23:00:17.783Z,11.55
2023-03-20T23:02:44.730Z,12.00
2023-03-20T23:05:11.831Z,11.52
2023-03-20T23:07:38.658Z,10.57
2023-03-20T23:10:06.495Z,11.05
2023-03-20T23:12:33.434Z,11.13
2023-03-20T23:15:00.380Z,11.57
2023-03-20T23:17:27.201Z,10.95
2023-03-20T23:20:05.311Z,11.10
2023-03-20T23:22:38.323Z,11.07
2023-03-20T23:25:13.387Z,10.48
2023-03-20T23:27:44.995Z,11.38
2023-03-20T23:30:12.065Z,10.93
2023-03-20T23:32:39.815Z,12.60
2023-03-20T23:35:07.687Z,12.20
2023-03-20T23:37:34.921Z,12.73
2023-03-20T23:40:01.427Z,12.77
2023-03-20T23:42:30.931Z,12.82
2023-03-20T23:45:04.341Z,13.02
2023-03-20T23:47:44.880Z,12.23
2023-03-20T23:50:20.682Z,13.10
2023-03-20T23:53:01.054Z,12.60
2023-03-20T23:55:30.515Z,12.32
2023-03-20T23:57:57.073Z,12.57
